sensor_id;sensor_type;location;lat;lon;timestamp;P1;durP1;ratioP1;P2;durP2;ratioP2
62911;SDS011;49111;51.028;4.218;2022-08-24T00:01:16;3.20;;;2.05;;
62911;SDS011;49111;51.028;4.218;2022-08-24T00:03:42;3.38;;;1.90;;
62911;SDS011;49111;51.028;4.218;2022-08-24T00:06:11;2.28;;;1.63;;
62911;SDS011;49111;51.028;4.218;2022-08-24T00:08:39;4.75;;;2.05;;
62911;SDS011;49111;51.028;4.218;2022-08-24T00:11:05;3.33;;;2.10;;
62911;SDS011;49111;51.028;4.218;2022-08-24T00:13:32;3.15;;;2.00;;
62911;SDS011;49111;51.028;4.218;2022-08-24T00:15:58;2.00;;;1.80;;
62911;SDS011;49111;51.028;4.218;2022-08-24T00:18:24;3.30;;;1.73;;
62911;SDS011;49111;51.028;4.218;2022-08-24T00:20:50;5.05;;;1.90;;
62911;SDS011;49111;51.028;4.218;2022-08-24T00:23:16;2.10;;;1.90;;
62911;SDS011;49111;51.028;4.218;2022-08-24T00:25:42;2.95;;;1.80;;
62911;SDS011;49111;51.028;4.218;2022-08-24T00:28:08;3.35;;;2.13;;
62911;SDS011;49111;51.028;4.218;2022-08-24T00:30:34;3.28;;;2.15;;
62911;SDS011;49111;51.028;4.218;2022-08-24T00:33:00;4.05;;;1.70;;
62911;SDS011;49111;51.028;4.218;2022-08-24T00:35:26;4.22;;;2.00;;
62911;SDS011;49111;51.028;4.218;2022-08-24T00:37:53;3.35;;;2.38;;
62911;SDS011;49111;51.028;4.218;2022-08-24T00:40:24;4.75;;;2.35;;
62911;SDS011;49111;51.028;4.218;2022-08-24T00:42:54;2.90;;;2.10;;
62911;SDS011;49111;51.028;4.218;2022-08-24T00:45:20;4.70;;;1.90;;
62911;SDS011;49111;51.028;4.218;2022-08-24T00:50:17;3.60;;;2.03;;
62911;SDS011;49111;51.028;4.218;2022-08-24T00:52:49;3.67;;;2.15;;
62911;SDS011;49111;51.028;4.218;2022-08-24T00:55:29;4.60;;;2.70;;
62911;SDS011;49111;51.028;4.218;2022-08-24T00:58:04;2.65;;;1.98;;
62911;SDS011;49111;51.028;4.218;2022-08-24T01:00:36;4.07;;;2.10;;
62911;SDS011;49111;51.028;4.218;2022-08-24T01:03:06;3.70;;;2.90;;
62911;SDS011;49111;51.028;4.218;2022-08-24T01:05:33;2.83;;;2.10;;
62911;SDS011;49111;51.028;4.218;2022-08-24T01:08:01;3.42;;;1.67;;
62911;SDS011;49111;51.028;4.218;2022-08-24T01:10:29;4.65;;;2.17;;
62911;SDS011;49111;51.028;4.218;2022-08-24T01:13:01;3.05;;;2.00;;
62911;SDS011;49111;51.028;4.218;2022-08-24T01:15:32;5.72;;;2.22;;
62911;SDS011;49111;51.028;4.218;2022-08-24T01:18:00;4.22;;;2.72;;
62911;SDS011;49111;51.028;4.218;2022-08-24T01:20:46;3.95;;;2.38;;
62911;SDS011;49111;51.028;4.218;2022-08-24T01:25:59;3.60;;;2.72;;
62911;SDS011;49111;51.028;4.218;2022-08-24T01:28:26;6.57;;;3.63;;
62911;SDS011;49111;51.028;4.218;2022-08-24T01:30:54;3.95;;;2.53;;
62911;SDS011;49111;51.028;4.218;2022-08-24T01:33:21;5.25;;;2.53;;
62911;SDS011;49111;51.028;4.218;2022-08-24T01:35:49;3.35;;;2.47;;
62911;SDS011;49111;51.028;4.218;2022-08-24T01:38:22;5.07;;;2.90;;
62911;SDS011;49111;51.028;4.218;2022-08-24T01:40:51;6.55;;;2.90;;
62911;SDS011;49111;51.028;4.218;2022-08-24T01:43:19;4.68;;;3.15;;
62911;SDS011;49111;51.028;4.218;2022-08-24T01:45:47;6.35;;;2.95;;
62911;SDS011;49111;51.028;4.218;2022-08-24T01:48:13;9.38;;;3.50;;
62911;SDS011;49111;51.028;4.218;2022-08-24T01:50:39;5.15;;;2.92;;
62911;SDS011;49111;51.028;4.218;2022-08-24T01:53:07;5.72;;;3.08;;
62911;SDS011;49111;51.028;4.218;2022-08-24T01:55:33;3.85;;;2.70;;
62911;SDS011;49111;51.028;4.218;2022-08-24T01:58:00;4.53;;;2.78;;
62911;SDS011;49111;51.028;4.218;2022-08-24T02:00:28;4.03;;;2.97;;
62911;SDS011;49111;51.028;4.218;2022-08-24T02:02:54;3.85;;;2.80;;
62911;SDS011;49111;51.028;4.218;2022-08-24T02:05:22;4.68;;;2.90;;
62911;SDS011;49111;51.028;4.218;2022-08-24T02:07:48;5.18;;;3.00;;
62911;SDS011;49111;51.028;4.218;2022-08-24T02:10:15;5.65;;;2.92;;
62911;SDS011;49111;51.028;4.218;2022-08-24T02:12:43;5.72;;;3.10;;
62911;SDS011;49111;51.028;4.218;2022-08-24T02:15:26;4.38;;;3.30;;
62911;SDS011;49111;51.028;4.218;2022-08-24T02:17:54;5.38;;;3.30;;
62911;SDS011;49111;51.028;4.218;2022-08-24T02:20:21;5.20;;;3.50;;
62911;SDS011;49111;51.028;4.218;2022-08-24T02:22:47;6.53;;;3.70;;
62911;SDS011;49111;51.028;4.218;2022-08-24T02:25:15;8.10;;;3.95;;
62911;SDS011;49111;51.028;4.218;2022-08-24T02:27:41;6.13;;;4.18;;
62911;SDS011;49111;51.028;4.218;2022-08-24T02:30:08;6.30;;;3.65;;
62911;SDS011;49111;51.028;4.218;2022-08-24T02:32:34;6.93;;;3.70;;
62911;SDS011;49111;51.028;4.218;2022-08-24T02:35:01;5.82;;;4.10;;
62911;SDS011;49111;51.028;4.218;2022-08-24T02:37:27;8.02;;;4.38;;
62911;SDS011;49111;51.028;4.218;2022-08-24T02:39:52;6.43;;;4.82;;
62911;SDS011;49111;51.028;4.218;2022-08-24T02:42:21;5.95;;;3.65;;
62911;SDS011;49111;51.028;4.218;2022-08-24T02:44:47;5.13;;;3.28;;
62911;SDS011;49111;51.028;4.218;2022-08-24T02:47:13;6.07;;;3.47;;
62911;SDS011;49111;51.028;4.218;2022-08-24T02:49:39;4.47;;;2.90;;
62911;SDS011;49111;51.028;4.218;2022-08-24T02:52:05;5.72;;;3.03;;
62911;SDS011;49111;51.028;4.218;2022-08-24T02:54:34;4.88;;;3.40;;
62911;SDS011;49111;51.028;4.218;2022-08-24T02:56:59;6.35;;;3.63;;
62911;SDS011;49111;51.028;4.218;2022-08-24T02:59:25;6.88;;;3.83;;
62911;SDS011;49111;51.028;4.218;2022-08-24T03:01:51;7.43;;;4.47;;
62911;SDS011;49111;51.028;4.218;2022-08-24T03:04:18;6.45;;;4.30;;
62911;SDS011;49111;51.028;4.218;2022-08-24T03:06:45;7.88;;;4.07;;
62911;SDS011;49111;51.028;4.218;2022-08-24T03:09:11;7.35;;;3.88;;
62911;SDS011;49111;51.028;4.218;2022-08-24T03:11:38;8.50;;;4.38;;
62911;SDS011;49111;51.028;4.218;2022-08-24T03:14:05;5.85;;;4.10;;
62911;SDS011;49111;51.028;4.218;2022-08-24T03:16:32;5.47;;;3.78;;
62911;SDS011;49111;51.028;4.218;2022-08-24T03:18:59;6.22;;;3.65;;
62911;SDS011;49111;51.028;4.218;2022-08-24T03:21:28;5.40;;;3.63;;
62911;SDS011;49111;51.028;4.218;2022-08-24T03:23:55;5.88;;;3.28;;
62911;SDS011;49111;51.028;4.218;2022-08-24T03:26:21;6.43;;;3.28;;
62911;SDS011;49111;51.028;4.218;2022-08-24T03:28:47;5.82;;;4.10;;
62911;SDS011;49111;51.028;4.218;2022-08-24T03:31:14;4.97;;;3.00;;
62911;SDS011;49111;51.028;4.218;2022-08-24T03:33:40;6.88;;;3.05;;
62911;SDS011;49111;51.028;4.218;2022-08-24T03:36:06;5.90;;;3.08;;
62911;SDS011;49111;51.028;4.218;2022-08-24T03:38:32;6.60;;;3.42;;
62911;SDS011;49111;51.028;4.218;2022-08-24T03:40:58;5.72;;;3.55;;
62911;SDS011;49111;51.028;4.218;2022-08-24T03:43:24;5.88;;;3.05;;
62911;SDS011;49111;51.028;4.218;2022-08-24T03:46:08;5.80;;;3.80;;
62911;SDS011;49111;51.028;4.218;2022-08-24T03:48:39;4.97;;;3.10;;
62911;SDS011;49111;51.028;4.218;2022-08-24T03:51:06;4.38;;;2.92;;
62911;SDS011;49111;51.028;4.218;2022-08-24T03:53:34;6.93;;;3.65;;
62911;SDS011;49111;51.028;4.218;2022-08-24T03:56:02;6.38;;;3.35;;
62911;SDS011;49111;51.028;4.218;2022-08-24T03:58:28;4.97;;;3.20;;
62911;SDS011;49111;51.028;4.218;2022-08-24T04:00:54;6.00;;;3.53;;
62911;SDS011;49111;51.028;4.218;2022-08-24T04:03:20;6.78;;;3.92;;
62911;SDS011;49111;51.028;4.218;2022-08-24T04:05:46;6.10;;;3.20;;
62911;SDS011;49111;51.028;4.218;2022-08-24T04:08:13;5.03;;;2.95;;
62911;SDS011;49111;51.028;4.218;2022-08-24T04:10:42;4.80;;;3.15;;
62911;SDS011;49111;51.028;4.218;2022-08-24T04:13:09;4.15;;;2.55;;
62911;SDS011;49111;51.028;4.218;2022-08-24T04:15:38;5.25;;;2.95;;
62911;SDS011;49111;51.028;4.218;2022-08-24T04:18:06;5.43;;;3.25;;
62911;SDS011;49111;51.028;4.218;2022-08-24T04:20:37;5.90;;;3.80;;
62911;SDS011;49111;51.028;4.218;2022-08-24T04:23:05;7.95;;;4.53;;
62911;SDS011;49111;51.028;4.218;2022-08-24T04:25:42;8.48;;;4.20;;
62911;SDS011;49111;51.028;4.218;2022-08-24T04:28:11;7.20;;;4.47;;
62911;SDS011;49111;51.028;4.218;2022-08-24T04:30:41;8.77;;;4.13;;
62911;SDS011;49111;51.028;4.218;2022-08-24T04:33:10;7.68;;;4.65;;
62911;SDS011;49111;51.028;4.218;2022-08-24T04:35:42;8.07;;;4.10;;
62911;SDS011;49111;51.028;4.218;2022-08-24T04:40:42;12.93;;;5.43;;
62911;SDS011;49111;51.028;4.218;2022-08-24T04:43:09;8.02;;;4.70;;
62911;SDS011;49111;51.028;4.218;2022-08-24T04:45:37;6.63;;;4.05;;
62911;SDS011;49111;51.028;4.218;2022-08-24T04:48:05;6.53;;;3.92;;
62911;SDS011;49111;51.028;4.218;2022-08-24T04:50:35;9.35;;;4.72;;
62911;SDS011;49111;51.028;4.218;2022-08-24T04:53:02;8.23;;;4.55;;
62911;SDS011;49111;51.028;4.218;2022-08-24T04:55:29;9.32;;;4.90;;
62911;SDS011;49111;51.028;4.218;2022-08-24T04:57:56;7.47;;;4.38;;
62911;SDS011;49111;51.028;4.218;2022-08-24T05:00:23;7.28;;;4.05;;
62911;SDS011;49111;51.028;4.218;2022-08-24T05:02:49;6.65;;;3.80;;
62911;SDS011;49111;51.028;4.218;2022-08-24T05:05:15;8.38;;;4.00;;
62911;SDS011;49111;51.028;4.218;2022-08-24T05:07:42;7.82;;;3.92;;
62911;SDS011;49111;51.028;4.218;2022-08-24T05:10:09;6.60;;;4.07;;
62911;SDS011;49111;51.028;4.218;2022-08-24T05:12:35;8.70;;;4.30;;
62911;SDS011;49111;51.028;4.218;2022-08-24T05:15:07;6.03;;;4.20;;
62911;SDS011;49111;51.028;4.218;2022-08-24T05:17:37;6.57;;;4.32;;
62911;SDS011;49111;51.028;4.218;2022-08-24T05:20:05;8.07;;;5.00;;
62911;SDS011;49111;51.028;4.218;2022-08-24T05:22:33;6.97;;;4.32;;
62911;SDS011;49111;51.028;4.218;2022-08-24T05:25:00;7.40;;;4.10;;
62911;SDS011;49111;51.028;4.218;2022-08-24T05:27:26;9.02;;;4.22;;
62911;SDS011;49111;51.028;4.218;2022-08-24T05:29:53;8.20;;;4.85;;
62911;SDS011;49111;51.028;4.218;2022-08-24T05:32:20;9.95;;;5.57;;
62911;SDS011;49111;51.028;4.218;2022-08-24T05:34:47;9.60;;;5.10;;
62911;SDS011;49111;51.028;4.218;2022-08-24T05:37:13;8.40;;;4.60;;
62911;SDS011;49111;51.028;4.218;2022-08-24T05:40:16;8.55;;;4.82;;
62911;SDS011;49111;51.028;4.218;2022-08-24T05:42:50;7.80;;;5.45;;
62911;SDS011;49111;51.028;4.218;2022-08-24T05:45:17;7.95;;;4.65;;
62911;SDS011;49111;51.028;4.218;2022-08-24T05:47:43;7.90;;;5.10;;
62911;SDS011;49111;51.028;4.218;2022-08-24T05:50:26;7.10;;;4.18;;
62911;SDS011;49111;51.028;4.218;2022-08-24T05:52:52;9.05;;;4.65;;
62911;SDS011;49111;51.028;4.218;2022-08-24T05:55:18;9.80;;;4.75;;
62911;SDS011;49111;51.028;4.218;2022-08-24T05:57:44;8.38;;;4.78;;
62911;SDS011;49111;51.028;4.218;2022-08-24T06:00:21;6.25;;;4.28;;
62911;SDS011;49111;51.028;4.218;2022-08-24T06:02:49;8.70;;;4.72;;
62911;SDS011;49111;51.028;4.218;2022-08-24T06:05:19;6.82;;;4.40;;
62911;SDS011;49111;51.028;4.218;2022-08-24T06:07:45;8.25;;;4.03;;
62911;SDS011;49111;51.028;4.218;2022-08-24T06:10:11;7.25;;;4.38;;
62911;SDS011;49111;51.028;4.218;2022-08-24T06:12:37;7.38;;;4.00;;
62911;SDS011;49111;51.028;4.218;2022-08-24T06:15:03;7.35;;;4.68;;
62911;SDS011;49111;51.028;4.218;2022-08-24T06:17:29;8.57;;;5.40;;
62911;SDS011;49111;51.028;4.218;2022-08-24T06:19:56;8.93;;;5.35;;
62911;SDS011;49111;51.028;4.218;2022-08-24T06:22:23;10.30;;;6.00;;
62911;SDS011;49111;51.028;4.218;2022-08-24T06:24:49;7.55;;;5.18;;
62911;SDS011;49111;51.028;4.218;2022-08-24T06:27:33;8.55;;;5.32;;
62911;SDS011;49111;51.028;4.218;2022-08-24T06:30:01;11.25;;;6.00;;
62911;SDS011;49111;51.028;4.218;2022-08-24T06:32:43;10.25;;;5.97;;
62911;SDS011;49111;51.028;4.218;2022-08-24T06:35:20;10.30;;;6.97;;
62911;SDS011;49111;51.028;4.218;2022-08-24T06:37:46;11.52;;;5.90;;
62911;SDS011;49111;51.028;4.218;2022-08-24T06:40:12;9.07;;;5.60;;
62911;SDS011;49111;51.028;4.218;2022-08-24T06:42:38;8.73;;;5.32;;
62911;SDS011;49111;51.028;4.218;2022-08-24T06:45:15;14.57;;;7.03;;
62911;SDS011;49111;51.028;4.218;2022-08-24T06:47:41;10.90;;;5.78;;
62911;SDS011;49111;51.028;4.218;2022-08-24T06:50:07;13.88;;;7.68;;
62911;SDS011;49111;51.028;4.218;2022-08-24T06:52:34;10.25;;;6.35;;
62911;SDS011;49111;51.028;4.218;2022-08-24T06:55:01;12.38;;;7.20;;
62911;SDS011;49111;51.028;4.218;2022-08-24T06:57:27;13.50;;;8.48;;
62911;SDS011;49111;51.028;4.218;2022-08-24T06:59:53;12.43;;;7.57;;
62911;SDS011;49111;51.028;4.218;2022-08-24T07:02:19;16.52;;;12.00;;
62911;SDS011;49111;51.028;4.218;2022-08-24T07:04:46;15.02;;;9.80;;
62911;SDS011;49111;51.028;4.218;2022-08-24T07:07:32;19.08;;;12.18;;
62911;SDS011;49111;51.028;4.218;2022-08-24T07:09:59;22.50;;;12.60;;
62911;SDS011;49111;51.028;4.218;2022-08-24T07:12:25;21.95;;;14.43;;
62911;SDS011;49111;51.028;4.218;2022-08-24T07:14:52;18.73;;;13.18;;
62911;SDS011;49111;51.028;4.218;2022-08-24T07:17:18;18.67;;;13.15;;
62911;SDS011;49111;51.028;4.218;2022-08-24T07:19:45;22.30;;;15.23;;
62911;SDS011;49111;51.028;4.218;2022-08-24T07:22:15;22.80;;;14.98;;
62911;SDS011;49111;51.028;4.218;2022-08-24T07:24:41;21.88;;;14.63;;
62911;SDS011;49111;51.028;4.218;2022-08-24T07:27:07;21.83;;;15.02;;
62911;SDS011;49111;51.028;4.218;2022-08-24T07:29:33;23.90;;;15.88;;
62911;SDS011;49111;51.028;4.218;2022-08-24T07:31:59;19.27;;;12.57;;
62911;SDS011;49111;51.028;4.218;2022-08-24T07:34:31;30.48;;;14.60;;
62911;SDS011;49111;51.028;4.218;2022-08-24T07:36:58;18.65;;;14.50;;
62911;SDS011;49111;51.028;4.218;2022-08-24T07:39:28;19.75;;;13.18;;
62911;SDS011;49111;51.028;4.218;2022-08-24T07:41:54;21.90;;;14.38;;
62911;SDS011;49111;51.028;4.218;2022-08-24T07:44:21;19.95;;;13.35;;
62911;SDS011;49111;51.028;4.218;2022-08-24T07:46:47;19.13;;;13.02;;
62911;SDS011;49111;51.028;4.218;2022-08-24T07:49:13;18.65;;;11.38;;
62911;SDS011;49111;51.028;4.218;2022-08-24T07:51:40;17.58;;;12.10;;
62911;SDS011;49111;51.028;4.218;2022-08-24T07:54:06;15.32;;;11.90;;
62911;SDS011;49111;51.028;4.218;2022-08-24T07:56:40;16.27;;;11.20;;
62911;SDS011;49111;51.028;4.218;2022-08-24T07:59:07;17.70;;;12.10;;
62911;SDS011;49111;51.028;4.218;2022-08-24T08:01:33;15.98;;;10.82;;
62911;SDS011;49111;51.028;4.218;2022-08-24T08:03:59;13.75;;;9.18;;
62911;SDS011;49111;51.028;4.218;2022-08-24T08:06:25;17.95;;;9.65;;
62911;SDS011;49111;51.028;4.218;2022-08-24T08:08:56;12.35;;;8.98;;
62911;SDS011;49111;51.028;4.218;2022-08-24T08:11:23;13.73;;;8.60;;
62911;SDS011;49111;51.028;4.218;2022-08-24T08:13:49;11.48;;;7.82;;
62911;SDS011;49111;51.028;4.218;2022-08-24T08:16:15;13.88;;;7.85;;
62911;SDS011;49111;51.028;4.218;2022-08-24T08:18:41;11.93;;;7.68;;
62911;SDS011;49111;51.028;4.218;2022-08-24T08:21:10;10.90;;;8.63;;
62911;SDS011;49111;51.028;4.218;2022-08-24T08:23:58;10.90;;;7.43;;
62911;SDS011;49111;51.028;4.218;2022-08-24T08:26:40;11.05;;;7.18;;
62911;SDS011;49111;51.028;4.218;2022-08-24T08:29:28;12.25;;;8.32;;
62911;SDS011;49111;51.028;4.218;2022-08-24T08:31:57;12.55;;;8.50;;
62911;SDS011;49111;51.028;4.218;2022-08-24T08:34:23;13.32;;;8.00;;
62911;SDS011;49111;51.028;4.218;2022-08-24T08:36:49;11.95;;;7.38;;
62911;SDS011;49111;51.028;4.218;2022-08-24T08:39:17;12.55;;;8.00;;
62911;SDS011;49111;51.028;4.218;2022-08-24T08:44:47;11.57;;;7.28;;
62911;SDS011;49111;51.028;4.218;2022-08-24T08:50:21;12.18;;;7.95;;
62911;SDS011;49111;51.028;4.218;2022-08-24T08:55:56;14.13;;;7.03;;
62911;SDS011;49111;51.028;4.218;2022-08-24T08:58:36;11.60;;;6.82;;
62911;SDS011;49111;51.028;4.218;2022-08-24T09:07:15;9.30;;;5.88;;
62911;SDS011;49111;51.028;4.218;2022-08-24T09:10:08;11.00;;;7.40;;
62911;SDS011;49111;51.028;4.218;2022-08-24T09:13:06;11.40;;;7.63;;
62911;SDS011;49111;51.028;4.218;2022-08-24T09:18:38;11.82;;;8.85;;
62911;SDS011;49111;51.028;4.218;2022-08-24T09:24:23;10.73;;;6.75;;
62911;SDS011;49111;51.028;4.218;2022-08-24T09:35:14;10.18;;;4.97;;
62911;SDS011;49111;51.028;4.218;2022-08-24T09:46:26;5.05;;;3.30;;
62911;SDS011;49111;51.028;4.218;2022-08-24T09:55:07;5.32;;;2.63;;
62911;SDS011;49111;51.028;4.218;2022-08-24T09:58:15;5.28;;;3.08;;
62911;SDS011;49111;51.028;4.218;2022-08-24T10:01:13;5.55;;;2.83;;
62911;SDS011;49111;51.028;4.218;2022-08-24T10:12:37;6.45;;;2.85;;
62911;SDS011;49111;51.028;4.218;2022-08-24T10:20:57;3.97;;;2.15;;
62911;SDS011;49111;51.028;4.218;2022-08-24T10:26:29;4.50;;;2.72;;
62911;SDS011;49111;51.028;4.218;2022-08-24T10:32:19;4.78;;;2.30;;
62911;SDS011;49111;51.028;4.218;2022-08-24T10:54:24;3.38;;;1.90;;
62911;SDS011;49111;51.028;4.218;2022-08-24T10:56:59;6.03;;;1.70;;
62911;SDS011;49111;51.028;4.218;2022-08-24T10:59:35;5.80;;;2.13;;
62911;SDS011;49111;51.028;4.218;2022-08-24T11:02:35;1.80;;;1.70;;
62911;SDS011;49111;51.028;4.218;2022-08-24T11:05:06;2.67;;;1.70;;
62911;SDS011;49111;51.028;4.218;2022-08-24T11:08:00;2.25;;;1.40;;
62911;SDS011;49111;51.028;4.218;2022-08-24T11:10:33;3.88;;;1.40;;
62911;SDS011;49111;51.028;4.218;2022-08-24T11:15:59;1.45;;;1.35;;
62911;SDS011;49111;51.028;4.218;2022-08-24T11:18:46;3.05;;;1.38;;
62911;SDS011;49111;51.028;4.218;2022-08-24T11:21:19;2.45;;;1.50;;
62911;SDS011;49111;51.028;4.218;2022-08-24T11:23:59;2.53;;;1.20;;
62911;SDS011;49111;51.028;4.218;2022-08-24T11:26:26;1.67;;;1.30;;
62911;SDS011;49111;51.028;4.218;2022-08-24T11:28:56;3.33;;;1.35;;
62911;SDS011;49111;51.028;4.218;2022-08-24T11:31:30;3.30;;;1.23;;
62911;SDS011;49111;51.028;4.218;2022-08-24T11:34:05;2.10;;;1.40;;
62911;SDS011;49111;51.028;4.218;2022-08-24T11:36:34;1.85;;;1.42;;
62911;SDS011;49111;51.028;4.218;2022-08-24T11:41:48;1.63;;;1.25;;
62911;SDS011;49111;51.028;4.218;2022-08-24T11:44:36;3.05;;;1.10;;
62911;SDS011;49111;51.028;4.218;2022-08-24T11:47:17;1.95;;;1.30;;
62911;SDS011;49111;51.028;4.218;2022-08-24T11:58:11;1.80;;;1.00;;
62911;SDS011;49111;51.028;4.218;2022-08-24T12:16:15;3.70;;;1.25;;
62911;SDS011;49111;51.028;4.218;2022-08-24T12:19:16;2.53;;;1.10;;
62911;SDS011;49111;51.028;4.218;2022-08-24T12:22:06;2.03;;;1.15;;
62911;SDS011;49111;51.028;4.218;2022-08-24T12:30:15;1.77;;;1.20;;
62911;SDS011;49111;51.028;4.218;2022-08-24T12:32:44;2.00;;;1.30;;
62911;SDS011;49111;51.028;4.218;2022-08-24T12:35:26;2.13;;;1.13;;
62911;SDS011;49111;51.028;4.218;2022-08-24T12:41:04;1.42;;;1.10;;
62911;SDS011;49111;51.028;4.218;2022-08-24T12:43:41;3.42;;;1.15;;
62911;SDS011;49111;51.028;4.218;2022-08-24T12:46:20;2.83;;;1.50;;
62911;SDS011;49111;51.028;4.218;2022-08-24T12:49:07;4.90;;;1.10;;
62911;SDS011;49111;51.028;4.218;2022-08-24T12:57:26;2.25;;;1.50;;
62911;SDS011;49111;51.028;4.218;2022-08-24T13:00:19;2.78;;;1.15;;
62911;SDS011;49111;51.028;4.218;2022-08-24T13:03:00;2.65;;;1.38;;
62911;SDS011;49111;51.028;4.218;2022-08-24T13:05:43;4.25;;;1.50;;
62911;SDS011;49111;51.028;4.218;2022-08-24T13:11:11;1.30;;;1.20;;
62911;SDS011;49111;51.028;4.218;2022-08-24T13:16:09;3.15;;;1.50;;
62911;SDS011;49111;51.028;4.218;2022-08-24T13:18:49;2.05;;;1.60;;
62911;SDS011;49111;51.028;4.218;2022-08-24T13:21:36;5.45;;;1.65;;
62911;SDS011;49111;51.028;4.218;2022-08-24T13:29:35;1.83;;;1.25;;
62911;SDS011;49111;51.028;4.218;2022-08-24T13:32:02;2.78;;;1.50;;
62911;SDS011;49111;51.028;4.218;2022-08-24T13:34:35;3.65;;;1.50;;
62911;SDS011;49111;51.028;4.218;2022-08-24T13:45:33;3.35;;;1.60;;
62911;SDS011;49111;51.028;4.218;2022-08-24T13:55:46;3.17;;;1.65;;
62911;SDS011;49111;51.028;4.218;2022-08-24T14:01:06;1.30;;;1.15;;
62911;SDS011;49111;51.028;4.218;2022-08-24T14:03:55;5.28;;;1.83;;
62911;SDS011;49111;51.028;4.218;2022-08-24T14:20:39;5.00;;;1.33;;
62911;SDS011;49111;51.028;4.218;2022-08-24T14:25:47;2.35;;;1.42;;
62911;SDS011;49111;51.028;4.218;2022-08-24T14:31:12;1.85;;;1.33;;
62911;SDS011;49111;51.028;4.218;2022-08-24T14:33:46;1.50;;;1.30;;
62911;SDS011;49111;51.028;4.218;2022-08-24T14:36:29;2.25;;;1.38;;
62911;SDS011;49111;51.028;4.218;2022-08-24T14:39:24;1.70;;;1.25;;
62911;SDS011;49111;51.028;4.218;2022-08-24T14:42:07;2.92;;;1.42;;
62911;SDS011;49111;51.028;4.218;2022-08-24T14:47:52;2.92;;;1.40;;
62911;SDS011;49111;51.028;4.218;2022-08-24T14:51:10;4.45;;;1.20;;
62911;SDS011;49111;51.028;4.218;2022-08-24T14:59:21;4.60;;;1.83;;
62911;SDS011;49111;51.028;4.218;2022-08-24T15:04:47;2.40;;;1.23;;
62911;SDS011;49111;51.028;4.218;2022-08-24T15:09:51;2.00;;;1.33;;
62911;SDS011;49111;51.028;4.218;2022-08-24T15:18:20;3.97;;;1.40;;
62911;SDS011;49111;51.028;4.218;2022-08-24T15:20:59;3.05;;;1.42;;
62911;SDS011;49111;51.028;4.218;2022-08-24T15:23:41;3.85;;;1.38;;
62911;SDS011;49111;51.028;4.218;2022-08-24T15:26:13;3.17;;;1.92;;
62911;SDS011;49111;51.028;4.218;2022-08-24T15:28:47;9.38;;;1.42;;
62911;SDS011;49111;51.028;4.218;2022-08-24T15:31:23;4.32;;;1.33;;
62911;SDS011;49111;51.028;4.218;2022-08-24T15:36:21;7.32;;;1.85;;
62911;SDS011;49111;51.028;4.218;2022-08-24T15:38:49;2.97;;;1.52;;
62911;SDS011;49111;51.028;4.218;2022-08-24T15:46:25;3.05;;;1.45;;
62911;SDS011;49111;51.028;4.218;2022-08-24T15:49:17;2.50;;;1.17;;
62911;SDS011;49111;51.028;4.218;2022-08-24T15:56:53;2.05;;;1.50;;
62911;SDS011;49111;51.028;4.218;2022-08-24T15:59:23;6.07;;;1.95;;
62911;SDS011;49111;51.028;4.218;2022-08-24T16:01:55;4.80;;;1.50;;
62911;SDS011;49111;51.028;4.218;2022-08-24T16:05:00;3.25;;;1.73;;
62911;SDS011;49111;51.028;4.218;2022-08-24T16:07:32;3.08;;;1.75;;
62911;SDS011;49111;51.028;4.218;2022-08-24T16:10:27;2.03;;;1.40;;
62911;SDS011;49111;51.028;4.218;2022-08-24T16:12:55;3.90;;;1.40;;
62911;SDS011;49111;51.028;4.218;2022-08-24T16:15:32;2.28;;;1.45;;
62911;SDS011;49111;51.028;4.218;2022-08-24T16:18:08;3.30;;;1.80;;
62911;SDS011;49111;51.028;4.218;2022-08-24T16:20:34;3.13;;;1.40;;
62911;SDS011;49111;51.028;4.218;2022-08-24T16:23:02;2.08;;;1.35;;
62911;SDS011;49111;51.028;4.218;2022-08-24T16:25:35;2.65;;;1.55;;
62911;SDS011;49111;51.028;4.218;2022-08-24T16:30:41;2.55;;;1.20;;
62911;SDS011;49111;51.028;4.218;2022-08-24T16:36:08;4.20;;;1.23;;
62911;SDS011;49111;51.028;4.218;2022-08-24T16:38:37;1.27;;;1.17;;
62911;SDS011;49111;51.028;4.218;2022-08-24T16:41:06;3.05;;;1.33;;
62911;SDS011;49111;51.028;4.218;2022-08-24T16:43:34;3.30;;;1.60;;
62911;SDS011;49111;51.028;4.218;2022-08-24T16:46:03;3.70;;;1.70;;
62911;SDS011;49111;51.028;4.218;2022-08-24T16:48:30;4.40;;;1.60;;
62911;SDS011;49111;51.028;4.218;2022-08-24T16:50:56;3.08;;;1.70;;
62911;SDS011;49111;51.028;4.218;2022-08-24T16:53:22;6.95;;;1.90;;
62911;SDS011;49111;51.028;4.218;2022-08-24T16:55:49;2.50;;;1.50;;
62911;SDS011;49111;51.028;4.218;2022-08-24T16:58:15;2.08;;;1.55;;
62911;SDS011;49111;51.028;4.218;2022-08-24T17:00:42;3.45;;;1.70;;
62911;SDS011;49111;51.028;4.218;2022-08-24T17:03:10;3.85;;;1.65;;
62911;SDS011;49111;51.028;4.218;2022-08-24T17:05:37;3.22;;;1.95;;
62911;SDS011;49111;51.028;4.218;2022-08-24T17:08:03;4.72;;;1.52;;
62911;SDS011;49111;51.028;4.218;2022-08-24T17:10:29;1.88;;;1.40;;
62911;SDS011;49111;51.028;4.218;2022-08-24T17:12:56;3.13;;;1.60;;
62911;SDS011;49111;51.028;4.218;2022-08-24T17:15:22;3.97;;;1.50;;
62911;SDS011;49111;51.028;4.218;2022-08-24T17:17:58;2.90;;;1.55;;
62911;SDS011;49111;51.028;4.218;2022-08-24T17:20:27;2.97;;;1.90;;
62911;SDS011;49111;51.028;4.218;2022-08-24T17:22:54;6.35;;;2.50;;
62911;SDS011;49111;51.028;4.218;2022-08-24T17:25:21;3.10;;;1.60;;
62911;SDS011;49111;51.028;4.218;2022-08-24T17:27:48;3.70;;;2.00;;
62911;SDS011;49111;51.028;4.218;2022-08-24T17:30:14;5.07;;;1.80;;
62911;SDS011;49111;51.028;4.218;2022-08-24T17:32:44;3.45;;;1.65;;
62911;SDS011;49111;51.028;4.218;2022-08-24T17:35:12;3.15;;;1.80;;
62911;SDS011;49111;51.028;4.218;2022-08-24T17:37:37;4.25;;;2.10;;
62911;SDS011;49111;51.028;4.218;2022-08-24T17:40:04;3.42;;;2.00;;
62911;SDS011;49111;51.028;4.218;2022-08-24T17:42:35;3.22;;;1.80;;
62911;SDS011;49111;51.028;4.218;2022-08-24T17:45:01;4.18;;;1.67;;
62911;SDS011;49111;51.028;4.218;2022-08-24T17:47:27;2.33;;;2.13;;
62911;SDS011;49111;51.028;4.218;2022-08-24T17:49:53;3.17;;;2.20;;
62911;SDS011;49111;51.028;4.218;2022-08-24T17:52:20;3.50;;;1.88;;
62911;SDS011;49111;51.028;4.218;2022-08-24T17:54:45;4.72;;;2.20;;
62911;SDS011;49111;51.028;4.218;2022-08-24T17:57:11;2.88;;;2.10;;
62911;SDS011;49111;51.028;4.218;2022-08-24T17:59:38;2.72;;;2.10;;
62911;SDS011;49111;51.028;4.218;2022-08-24T18:02:05;3.40;;;2.28;;
62911;SDS011;49111;51.028;4.218;2022-08-24T18:04:33;2.63;;;1.90;;
62911;SDS011;49111;51.028;4.218;2022-08-24T18:07:02;3.47;;;2.10;;
62911;SDS011;49111;51.028;4.218;2022-08-24T18:09:39;3.25;;;2.10;;
62911;SDS011;49111;51.028;4.218;2022-08-24T18:12:10;2.80;;;2.28;;
62911;SDS011;49111;51.028;4.218;2022-08-24T18:14:36;3.67;;;2.15;;
62911;SDS011;49111;51.028;4.218;2022-08-24T18:17:03;3.20;;;2.80;;
62911;SDS011;49111;51.028;4.218;2022-08-24T18:19:32;4.10;;;2.13;;
62911;SDS011;49111;51.028;4.218;2022-08-24T18:22:00;4.95;;;2.50;;
62911;SDS011;49111;51.028;4.218;2022-08-24T18:24:27;3.33;;;2.60;;
62911;SDS011;49111;51.028;4.218;2022-08-24T18:27:00;3.53;;;2.78;;
62911;SDS011;49111;51.028;4.218;2022-08-24T18:29:29;5.25;;;2.55;;
62911;SDS011;49111;51.028;4.218;2022-08-24T18:31:56;4.40;;;2.78;;
62911;SDS011;49111;51.028;4.218;2022-08-24T18:34:22;8.55;;;2.90;;
62911;SDS011;49111;51.028;4.218;2022-08-24T18:36:49;4.63;;;2.65;;
62911;SDS011;49111;51.028;4.218;2022-08-24T18:39:15;4.95;;;3.10;;
62911;SDS011;49111;51.028;4.218;2022-08-24T18:41:42;4.38;;;2.78;;
62911;SDS011;49111;51.028;4.218;2022-08-24T18:44:10;5.22;;;2.85;;
62911;SDS011;49111;51.028;4.218;2022-08-24T18:46:38;4.65;;;2.60;;
62911;SDS011;49111;51.028;4.218;2022-08-24T18:49:04;5.13;;;3.13;;
62911;SDS011;49111;51.028;4.218;2022-08-24T18:51:32;5.57;;;3.20;;